sensor_id;sensor_type;location;lat;lon;timestamp;pressure;altitude;pressure_sealevel;temperature;humidity
43436;BME280;36399;51.444;-2.018;2023-05-29T00:01:14;102061.31;;;10.36;100.00
43436;BME280;36399;51.444;-2.018;2023-05-29T00:03:44;102065.63;;;10.34;100.00
43436;BME280;36399;51.444;-2.018;2023-05-29T00:06:10;102064.78;;;10.35;100.00
43436;BME280;36399;51.444;-2.018;2023-05-29T00:08:36;102053.22;;;10.30;100.00
43436;BME280;36399;51.444;-2.018;2023-05-29T00:11:02;102053.28;;;10.31;100.00
43436;BME280;36399;51.444;-2.018;2023-05-29T00:13:28;102054.06;;;10.29;100.00
43436;BME280;36399;51.444;-2.018;2023-05-29T00:15:54;102047.97;;;10.30;100.00
43436;BME280;36399;51.444;-2.018;2023-05-29T00:18:21;102042.59;;;10.27;100.00
43436;BME280;36399;51.444;-2.018;2023-05-29T00:20:47;102043.09;;;10.18;100.00
43436;BME280;36399;51.444;-2.018;2023-05-29T00:23:13;102044.41;;;10.07;100.00
43436;BME280;36399;51.444;-2.018;2023-05-29T00:25:39;102048.94;;;10.11;100.00
43436;BME280;36399;51.444;-2.018;2023-05-29T00:28:08;102038.16;;;10.03;100.00
43436;BME280;36399;51.444;-2.018;2023-05-29T00:30:35;102035.94;;;9.92;100.00
43436;BME280;36399;51.444;-2.018;2023-05-29T00:33:01;102036.69;;;9.89;100.00
43436;BME280;36399;51.444;-2.018;2023-05-29T00:35:27;102051.78;;;9.74;100.00
43436;BME280;36399;51.444;-2.018;2023-05-29T00:37:53;102053.13;;;9.64;100.00
43436;BME280;36399;51.444;-2.018;2023-05-29T00:40:19;102054.66;;;9.59;100.00
43436;BME280;36399;51.444;-2.018;2023-05-29T00:42:45;102051.47;;;9.45;100.00
43436;BME280;36399;51.444;-2.018;2023-05-29T00:45:11;102063.88;;;9.49;100.00
43436;BME280;36399;51.444;-2.018;2023-05-29T00:47:40;102042.50;;;9.40;100.00
43436;BME280;36399;51.444;-2.018;2023-05-29T00:50:08;102047.88;;;9.43;100.00
43436;BME280;36399;51.444;-2.018;2023-05-29T00:52:37;102048.59;;;9.39;100.00
43436;BME280;36399;51.444;-2.018;2023-05-29T00:55:04;102033.13;;;9.26;100.00
43436;BME280;36399;51.444;-2.018;2023-05-29T00:57:30;102022.78;;;9.29;100.00
43436;BME280;36399;51.444;-2.018;2023-05-29T00:59:58;102027.69;;;9.22;100.00
43436;BME280;36399;51.444;-2.018;2023-05-29T01:02:24;102021.22;;;9.13;100.00
43436;BME280;36399;51.444;-2.018;2023-05-29T01:04:52;102016.75;;;9.11;100.00
43436;BME280;36399;51.444;-2.018;2023-05-29T01:07:20;102021.81;;;9.06;100.00
43436;BME280;36399;51.444;-2.018;2023-05-29T01:09:46;102023.38;;;9.03;100.00
43436;BME280;36399;51.444;-2.018;2023-05-29T01:13:23;102037.03;;;8.96;100.00
43436;BME280;36399;51.444;-2.018;2023-05-29T01:15:24;102034.22;;;8.91;100.00
43436;BME280;36399;51.444;-2.018;2023-05-29T01:21:14;102038.34;;;8.67;100.00
43436;BME280;36399;51.444;-2.018;2023-05-29T01:26:45;102047.28;;;8.52;100.00
43436;BME280;36399;51.444;-2.018;2023-05-29T01:29:19;102045.41;;;8.50;100.00
43436;BME280;36399;51.444;-2.018;2023-05-29T01:31:47;102052.31;;;8.48;100.00
43436;BME280;36399;51.444;-2.018;2023-05-29T01:34:13;102043.63;;;8.49;100.00
43436;BME280;36399;51.444;-2.018;2023-05-29T01:36:39;102049.47;;;8.43;100.00
43436;BME280;36399;51.444;-2.018;2023-05-29T01:39:05;102054.34;;;8.36;100.00
43436;BME280;36399;51.444;-2.018;2023-05-29T01:41:32;102058.41;;;8.31;100.00
43436;BME280;36399;51.444;-2.018;2023-05-29T01:44:00;102062.53;;;8.26;100.00
43436;BME280;36399;51.444;-2.018;2023-05-29T01:46:27;102057.06;;;8.21;100.00
43436;BME280;36399;51.444;-2.018;2023-05-29T01:48:53;102064.84;;;8.19;100.00
43436;BME280;36399;51.444;-2.018;2023-05-29T01:51:20;102068.91;;;7.95;100.00
43436;BME280;36399;51.444;-2.018;2023-05-29T01:53:47;102068.63;;;7.89;100.00
43436;BME280;36399;51.444;-2.018;2023-05-29T01:56:13;102073.16;;;7.93;100.00
43436;BME280;36399;51.444;-2.018;2023-05-29T01:58:40;102068.25;;;7.99;100.00
43436;BME280;36399;51.444;-2.018;2023-05-29T02:01:06;102057.66;;;7.80;100.00
43436;BME280;36399;51.444;-2.018;2023-05-29T02:03:33;102064.22;;;7.88;100.00
43436;BME280;36399;51.444;-2.018;2023-05-29T02:06:00;102063.38;;;7.89;100.00
43436;BME280;36399;51.444;-2.018;2023-05-29T02:08:26;102075.34;;;7.84;100.00
43436;BME280;36399;51.444;-2.018;2023-05-29T02:10:52;102074.91;;;7.76;100.00
43436;BME280;36399;51.444;-2.018;2023-05-29T02:13:18;102073.19;;;7.59;100.00
43436;BME280;36399;51.444;-2.018;2023-05-29T02:15:44;102078.50;;;7.60;100.00
43436;BME280;36399;51.444;-2.018;2023-05-29T02:18:12;102083.34;;;7.53;100.00
43436;BME280;36399;51.444;-2.018;2023-05-29T02:20:38;102087.19;;;7.43;100.00
43436;BME280;36399;51.444;-2.018;2023-05-29T02:23:04;102084.81;;;7.48;100.00
43436;BME280;36399;51.444;-2.018;2023-05-29T02:25:30;102086.31;;;7.43;100.00
43436;BME280;36399;51.444;-2.018;2023-05-29T02:27:56;102078.84;;;7.50;100.00
43436;BME280;36399;51.444;-2.018;2023-05-29T02:30:22;102088.72;;;7.56;100.00
43436;BME280;36399;51.444;-2.018;2023-05-29T02:32:48;102075.25;;;7.48;100.00
43436;BME280;36399;51.444;-2.018;2023-05-29T02:35:14;102090.19;;;7.51;100.00
43436;BME280;36399;51.444;-2.018;2023-05-29T02:37:41;102081.47;;;7.50;100.00
43436;BME280;36399;51.444;-2.018;2023-05-29T02:40:07;102079.91;;;7.54;100.00
43436;BME280;36399;51.444;-2.018;2023-05-29T02:42:36;102077.22;;;7.52;100.00
43436;BME280;36399;51.444;-2.018;2023-05-29T02:45:02;102074.53;;;7.51;100.00
43436;BME280;36399;51.444;-2.018;2023-05-29T02:47:29;102066.28;;;7.43;100.00
43436;BME280;36399;51.444;-2.018;2023-05-29T02:49:55;102079.44;;;7.45;100.00
43436;BME280;36399;51.444;-2.018;2023-05-29T02:52:20;102073.00;;;7.38;100.00
43436;BME280;36399;51.444;-2.018;2023-05-29T02:54:49;102074.56;;;7.35;100.00
43436;BME280;36399;51.444;-2.018;2023-05-29T02:57:15;102073.81;;;7.21;100.00
43436;BME280;36399;51.444;-2.018;2023-05-29T02:59:41;102072.03;;;7.20;100.00
43436;BME280;36399;51.444;-2.018;2023-05-29T03:02:07;102076.94;;;7.14;100.00
43436;BME280;36399;51.444;-2.018;2023-05-29T03:04:33;102074.97;;;7.10;100.00
43436;BME280;36399;51.444;-2.018;2023-05-29T03:06:59;102080.78;;;7.04;100.00
43436;BME280;36399;51.444;-2.018;2023-05-29T03:09:25;102078.72;;;7.15;100.00
43436;BME280;36399;51.444;-2.018;2023-05-29T03:11:51;102069.13;;;6.97;100.00
43436;BME280;36399;51.444;-2.018;2023-05-29T03:14:17;102070.00;;;6.98;100.00
43436;BME280;36399;51.444;-2.018;2023-05-29T03:16:44;102076.88;;;6.96;100.00
43436;BME280;36399;51.444;-2.018;2023-05-29T03:19:10;102072.38;;;6.93;100.00
43436;BME280;36399;51.444;-2.018;2023-05-29T03:21:36;102078.66;;;6.97;100.00
43436;BME280;36399;51.444;-2.018;2023-05-29T03:24:02;102082.66;;;6.90;100.00
43436;BME280;36399;51.444;-2.018;2023-05-29T03:26:29;102081.78;;;6.90;100.00
43436;BME280;36399;51.444;-2.018;2023-05-29T03:28:55;102082.19;;;6.81;100.00
43436;BME280;36399;51.444;-2.018;2023-05-29T03:31:21;102084.94;;;6.84;100.00
43436;BME280;36399;51.444;-2.018;2023-05-29T03:33:47;102084.78;;;6.81;100.00
43436;BME280;36399;51.444;-2.018;2023-05-29T03:36:13;102086.41;;;6.95;100.00
43436;BME280;36399;51.444;-2.018;2023-05-29T03:38:39;102091.16;;;6.86;100.00
43436;BME280;36399;51.444;-2.018;2023-05-29T03:41:05;102099.31;;;6.92;100.00
43436;BME280;36399;51.444;-2.018;2023-05-29T03:43:31;102104.69;;;6.95;100.00
43436;BME280;36399;51.444;-2.018;2023-05-29T03:45:57;102096.53;;;6.89;100.00
43436;BME280;36399;51.444;-2.018;2023-05-29T03:48:23;102109.91;;;6.95;100.00
43436;BME280;36399;51.444;-2.018;2023-05-29T03:50:49;102112.19;;;6.89;100.00
43436;BME280;36399;51.444;-2.018;2023-05-29T03:53:15;102106.50;;;6.80;100.00
43436;BME280;36399;51.444;-2.018;2023-05-29T03:55:41;102108.59;;;6.87;100.00
43436;BME280;36399;51.444;-2.018;2023-05-29T03:58:07;102105.03;;;6.85;100.00
43436;BME280;36399;51.444;-2.018;2023-05-29T04:00:33;102110.25;;;6.85;100.00
43436;BME280;36399;51.444;-2.018;2023-05-29T04:02:59;102102.69;;;6.75;100.00
43436;BME280;36399;51.444;-2.018;2023-05-29T04:05:25;102105.97;;;6.71;100.00
43436;BME280;36399;51.444;-2.018;2023-05-29T04:07:52;102107.41;;;6.66;100.00
43436;BME280;36399;51.444;-2.018;2023-05-29T04:10:18;102117.84;;;6.66;100.00
43436;BME280;36399;51.444;-2.018;2023-05-29T04:12:44;102117.94;;;6.68;100.00
43436;BME280;36399;51.444;-2.018;2023-05-29T04:15:10;102122.19;;;6.65;100.00
43436;BME280;36399;51.444;-2.018;2023-05-29T04:17:35;102130.34;;;6.72;100.00
43436;BME280;36399;51.444;-2.018;2023-05-29T04:20:02;102136.94;;;6.65;100.00
43436;BME280;36399;51.444;-2.018;2023-05-29T04:22:36;102136.94;;;6.65;100.00
43436;BME280;36399;51.444;-2.018;2023-05-29T04:25:03;102132.06;;;6.71;100.00
43436;BME280;36399;51.444;-2.018;2023-05-29T04:27:30;102135.66;;;6.73;100.00
43436;BME280;36399;51.444;-2.018;2023-05-29T04:29:58;102144.03;;;6.68;100.00
43436;BME280;36399;51.444;-2.018;2023-05-29T04:32:24;102153.88;;;6.57;100.00
43436;BME280;36399;51.444;-2.018;2023-05-29T04:34:50;102146.97;;;6.57;100.00
43436;BME280;36399;51.444;-2.018;2023-05-29T04:37:17;102151.28;;;6.57;100.00
43436;BME280;36399;51.444;-2.018;2023-05-29T04:39:43;102148.09;;;6.62;100.00
43436;BME280;36399;51.444;-2.018;2023-05-29T04:42:09;102152.03;;;6.71;100.00
43436;BME280;36399;51.444;-2.018;2023-05-29T04:44:35;102157.41;;;6.74;100.00
43436;BME280;36399;51.444;-2.018;2023-05-29T04:47:01;102154.56;;;6.69;100.00
43436;BME280;36399;51.444;-2.018;2023-05-29T04:49:29;102158.88;;;6.69;100.00
43436;BME280;36399;51.444;-2.018;2023-05-29T04:51:56;102165.00;;;6.69;100.00
43436;BME280;36399;51.444;-2.018;2023-05-29T04:54:22;102167.13;;;6.76;100.00
43436;BME280;36399;51.444;-2.018;2023-05-29T04:56:48;102181.19;;;6.78;100.00
43436;BME280;36399;51.444;-2.018;2023-05-29T04:59:14;102175.25;;;6.81;100.00
43436;BME280;36399;51.444;-2.018;2023-05-29T05:01:41;102186.59;;;6.81;100.00
43436;BME280;36399;51.444;-2.018;2023-05-29T05:04:09;102184.22;;;6.86;100.00
43436;BME280;36399;51.444;-2.018;2023-05-29T05:06:35;102178.63;;;6.94;100.00
43436;BME280;36399;51.444;-2.018;2023-05-29T05:09:01;102176.41;;;7.02;100.00
43436;BME280;36399;51.444;-2.018;2023-05-29T05:11:27;102176.97;;;6.96;100.00
43436;BME280;36399;51.444;-2.018;2023-05-29T05:13:53;102176.25;;;6.99;100.00
43436;BME280;36399;51.444;-2.018;2023-05-29T05:16:19;102170.63;;;7.08;100.00
43436;BME280;36399;51.444;-2.018;2023-05-29T05:18:45;102173.47;;;7.12;100.00
43436;BME280;36399;51.444;-2.018;2023-05-29T05:21:11;102170.38;;;7.19;100.00
43436;BME280;36399;51.444;-2.018;2023-05-29T05:23:37;102177.81;;;7.28;100.00
43436;BME280;36399;51.444;-2.018;2023-05-29T05:26:03;102170.16;;;7.31;100.00
43436;BME280;36399;51.444;-2.018;2023-05-29T05:28:29;102163.31;;;7.33;100.00
43436;BME280;36399;51.444;-2.018;2023-05-29T05:30:55;102160.03;;;7.37;100.00
43436;BME280;36399;51.444;-2.018;2023-05-29T05:33:21;102158.88;;;7.48;100.00
43436;BME280;36399;51.444;-2.018;2023-05-29T05:35:47;102156.66;;;7.56;100.00
43436;BME280;36399;51.444;-2.018;2023-05-29T05:38:12;102159.81;;;7.67;100.00
43436;BME280;36399;51.444;-2.018;2023-05-29T05:40:38;102149.53;;;7.70;100.00
43436;BME280;36399;51.444;-2.018;2023-05-29T05:43:05;102137.28;;;7.69;100.00
43436;BME280;36399;51.444;-2.018;2023-05-29T05:45:31;102138.19;;;7.69;100.00
43436;BME280;36399;51.444;-2.018;2023-05-29T05:47:57;102138.91;;;7.83;100.00
43436;BME280;36399;51.444;-2.018;2023-05-29T05:50:23;102139.44;;;7.94;100.00
43436;BME280;36399;51.444;-2.018;2023-05-29T05:52:50;102132.50;;;7.94;100.00
43436;BME280;36399;51.444;-2.018;2023-05-29T05:55:16;102120.91;;;8.07;100.00
43436;BME280;36399;51.444;-2.018;2023-05-29T05:57:42;102123.47;;;8.05;100.00
43436;BME280;36399;51.444;-2.018;2023-05-29T06:00:09;102110.69;;;8.11;100.00
43436;BME280;36399;51.444;-2.018;2023-05-29T06:02:38;102098.34;;;8.27;100.00
43436;BME280;36399;51.444;-2.018;2023-05-29T06:05:08;102095.03;;;8.31;100.00
43436;BME280;36399;51.444;-2.018;2023-05-29T06:07:35;102081.50;;;8.38;100.00
43436;BME280;36399;51.444;-2.018;2023-05-29T06:10:01;102081.78;;;8.44;100.00
43436;BME280;36399;51.444;-2.018;2023-05-29T06:12:27;102076.34;;;8.59;100.00
43436;BME280;36399;51.444;-2.018;2023-05-29T06:14:53;102072.16;;;8.62;100.00
43436;BME280;36399;51.444;-2.018;2023-05-29T06:17:19;102069.75;;;8.67;100.00
43436;BME280;36399;51.444;-2.018;2023-05-29T06:19:45;102064.03;;;8.75;100.00
43436;BME280;36399;51.444;-2.018;2023-05-29T06:22:11;102063.47;;;8.82;100.00
43436;BME280;36399;51.444;-2.018;2023-05-29T06:24:37;102050.56;;;8.85;100.00
43436;BME280;36399;51.444;-2.018;2023-05-29T06:27:03;102058.00;;;8.96;100.00
43436;BME280;36399;51.444;-2.018;2023-05-29T06:29:29;102038.53;;;9.10;100.00
43436;BME280;36399;51.444;-2.018;2023-05-29T06:31:55;102037.84;;;9.14;100.00
43436;BME280;36399;51.444;-2.018;2023-05-29T06:34:21;102039.28;;;9.27;100.00
43436;BME280;36399;51.444;-2.018;2023-05-29T06:36:47;102023.75;;;9.31;100.00
43436;BME280;36399;51.444;-2.018;2023-05-29T06:39:13;102016.16;;;9.37;100.00
43436;BME280;36399;51.444;-2.018;2023-05-29T06:41:39;102011.44;;;9.49;100.00
43436;BME280;36399;51.444;-2.018;2023-05-29T06:44:06;102015.28;;;9.58;100.00
43436;BME280;36399;51.444;-2.018;2023-05-29T06:46:32;102001.69;;;9.68;100.00
43436;BME280;36399;51.444;-2.018;2023-05-29T06:48:58;102003.38;;;9.66;100.00
43436;BME280;36399;51.444;-2.018;2023-05-29T06:51:24;102007.84;;;9.68;100.00
43436;BME280;36399;51.444;-2.018;2023-05-29T06:53:50;102003.72;;;9.96;100.00
43436;BME280;36399;51.444;-2.018;2023-05-29T06:56:16;101986.31;;;9.98;100.00
43436;BME280;36399;51.444;-2.018;2023-05-29T06:58:42;101962.06;;;10.03;100.00
43436;BME280;36399;51.444;-2.018;2023-05-29T07:01:08;101958.81;;;10.10;100.00
43436;BME280;36399;51.444;-2.018;2023-05-29T07:03:34;101945.00;;;10.15;100.00
43436;BME280;36399;51.444;-2.018;2023-05-29T07:06:00;101955.94;;;10.25;100.00
43436;BME280;36399;51.444;-2.018;2023-05-29T07:08:27;101940.09;;;10.46;100.00
43436;BME280;36399;51.444;-2.018;2023-05-29T07:10:53;101937.88;;;10.57;100.00
43436;BME280;36399;51.444;-2.018;2023-05-29T07:13:19;101917.59;;;10.53;100.00
43436;BME280;36399;51.444;-2.018;2023-05-29T07:15:45;101926.69;;;10.62;100.00
43436;BME280;36399;51.444;-2.018;2023-05-29T07:18:11;101921.25;;;10.82;100.00
43436;BME280;36399;51.444;-2.018;2023-05-29T07:20:37;101922.63;;;10.96;100.00
43436;BME280;36399;51.444;-2.018;2023-05-29T07:23:03;101909.44;;;10.94;100.00
43436;BME280;36399;51.444;-2.018;2023-05-29T07:25:30;101899.84;;;10.95;100.00
43436;BME280;36399;51.444;-2.018;2023-05-29T07:27:56;101902.03;;;11.08;100.00
43436;BME280;36399;51.444;-2.018;2023-05-29T07:30:22;101888.94;;;11.36;100.00
43436;BME280;36399;51.444;-2.018;2023-05-29T07:32:48;101888.22;;;11.69;100.00
43436;BME280;36399;51.444;-2.018;2023-05-29T07:35:14;101886.91;;;11.82;100.00
43436;BME280;36399;51.444;-2.018;2023-05-29T07:37:40;101861.84;;;11.66;100.00
43436;BME280;36399;51.444;-2.018;2023-05-29T07:40:07;101880.47;;;11.74;100.00
43436;BME280;36399;51.444;-2.018;2023-05-29T07:42:33;101871.13;;;11.55;100.00
43436;BME280;36399;51.444;-2.018;2023-05-29T07:45:00;101871.00;;;11.50;100.00
43436;BME280;36399;51.444;-2.018;2023-05-29T07:47:26;101872.63;;;11.75;100.00
43436;BME280;36399;51.444;-2.018;2023-05-29T07:49:52;101859.91;;;11.89;100.00
43436;BME280;36399;51.444;-2.018;2023-05-29T07:52:18;101862.50;;;11.87;100.00
43436;BME280;36399;51.444;-2.018;2023-05-29T07:54:44;101863.34;;;12.15;100.00
43436;BME280;36399;51.444;-2.018;2023-05-29T07:57:10;101860.41;;;12.36;100.00
43436;BME280;36399;51.444;-2.018;2023-05-29T07:59:36;101860.66;;;12.76;100.00
43436;BME280;36399;51.444;-2.018;2023-05-29T08:02:03;101857.91;;;12.72;100.00
43436;BME280;36399;51.444;-2.018;2023-05-29T08:04:30;101854.84;;;12.56;100.00
43436;BME280;36399;51.444;-2.018;2023-05-29T08:06:56;101856.06;;;12.69;100.00
43436;BME280;36399;51.444;-2.018;2023-05-29T08:09:22;101860.03;;;13.19;100.00
43436;BME280;36399;51.444;-2.018;2023-05-29T08:11:48;101849.03;;;13.37;100.00
43436;BME280;36399;51.444;-2.018;2023-05-29T08:14:14;101850.88;;;13.79;100.00
43436;BME280;36399;51.444;-2.018;2023-05-29T08:16:41;101841.88;;;14.10;100.00
43436;BME280;36399;51.444;-2.018;2023-05-29T08:19:07;101840.38;;;14.24;100.00
43436;BME280;36399;51.444;-2.018;2023-05-29T08:21:33;101827.75;;;14.08;100.00
43436;BME280;36399;51.444;-2.018;2023-05-29T08:24:02;101841.19;;;13.79;100.00
43436;BME280;36399;51.444;-2.018;2023-05-29T08:26:31;101845.16;;;14.00;100.00
43436;BME280;36399;51.444;-2.018;2023-05-29T08:28:57;101832.72;;;13.53;100.00
43436;BME280;36399;51.444;-2.018;2023-05-29T08:31:23;101841.25;;;13.07;100.00
43436;BME280;36399;51.444;-2.018;2023-05-29T08:33:53;101836.75;;;12.69;100.00
43436;BME280;36399;51.444;-2.018;2023-05-29T08:36:19;101860.03;;;12.53;100.00
43436;BME280;36399;51.444;-2.018;2023-05-29T08:38:48;101851.06;;;12.80;100.00
43436;BME280;36399;51.444;-2.018;2023-05-29T08:41:21;101837.91;;;12.80;100.00
43436;BME280;36399;51.444;-2.018;2023-05-29T08:43:48;101853.31;;;12.99;100.00
43436;BME280;36399;51.444;-2.018;2023-05-29T08:46:14;101858.38;;;12.90;100.00
43436;BME280;36399;51.444;-2.018;2023-05-29T08:48:47;101856.41;;;13.16;100.00
43436;BME280;36399;51.444;-2.018;2023-05-29T08:51:14;101843.53;;;13.66;100.00
43436;BME280;36399;51.444;-2.018;2023-05-29T08:53:45;101843.50;;;13.64;100.00
43436;BME280;36399;51.444;-2.018;2023-05-29T08:56:11;101837.84;;;13.86;100.00
43436;BME280;36399;51.444;-2.018;2023-05-29T08:58:37;101840.47;;;13.86;100.00
43436;BME280;36399;51.444;-2.018;2023-05-29T09:01:04;101830.91;;;13.92;100.00
43436;BME280;36399;51.444;-2.018;2023-05-29T09:03:31;101837.44;;;13.68;100.00
43436;BME280;36399;51.444;-2.018;2023-05-29T09:06:00;101832.75;;;13.96;100.00
43436;BME280;36399;51.444;-2.018;2023-05-29T09:08:29;101834.97;;;14.18;100.00
43436;BME280;36399;51.444;-2.018;2023-05-29T09:10:56;101829.75;;;14.21;100.00
43436;BME280;36399;51.444;-2.018;2023-05-29T09:13:22;101846.06;;;14.42;100.00
43436;BME280;36399;51.444;-2.018;2023-05-29T09:15:49;101835.03;;;14.65;100.00
43436;BME280;36399;51.444;-2.018;2023-05-29T09:18:16;101828.53;;;14.47;100.00
43436;BME280;36399;51.444;-2.018;2023-05-29T09:20:43;101836.28;;;13.96;100.00
43436;BME280;36399;51.444;-2.018;2023-05-29T09:23:09;101829.75;;;14.21;100.00
43436;BME280;36399;51.444;-2.018;2023-05-29T09:25:40;101828.47;;;14.02;100.00
43436;BME280;36399;51.444;-2.018;2023-05-29T09:28:08;101841.13;;;13.76;100.00
43436;BME280;36399;51.444;-2.018;2023-05-29T09:30:39;101834.13;;;13.78;100.00
43436;BME280;36399;51.444;-2.018;2023-05-29T09:33:07;101836.88;;;14.25;100.00
43436;BME280;36399;51.444;-2.018;2023-05-29T09:35:34;101836.50;;;14.50;100.00
43436;BME280;36399;51.444;-2.018;2023-05-29T09:38:00;101837.16;;;14.40;100.00
43436;BME280;36399;51.444;-2.018;2023-05-29T09:40:32;101841.28;;;14.25;100.00
43436;BME280;36399;51.444;-2.018;2023-05-29T09:43:02;101843.72;;;14.15;100.00
43436;BME280;36399;51.444;-2.018;2023-05-29T09:45:30;101841.00;;;14.55;100.00
43436;BME280;36399;51.444;-2.018;2023-05-29T09:47:58;101837.22;;;14.89;100.00
43436;BME280;36399;51.444;-2.018;2023-05-29T09:50:27;101830.06;;;15.36;100.00
43436;BME280;36399;51.444;-2.018;2023-05-29T09:52:56;101832.03;;;15.51;100.00
43436;BME280;36399;51.444;-2.018;2023-05-29T09:55:27;101829.25;;;15.41;100.00
43436;BME280;36399;51.444;-2.018;2023-05-29T09:57:54;101834.19;;;15.74;100.00
43436;BME280;36399;51.444;-2.018;2023-05-29T10:00:21;101830.97;;;16.73;100.00
43436;BME280;36399;51.444;-2.018;2023-05-29T10:02:48;101826.97;;;17.25;100.00
43436;BME280;36399;51.444;-2.018;2023-05-29T10:05:14;101828.09;;;17.60;100.00
43436;BME280;36399;51.444;-2.018;2023-05-29T10:07:46;101820.97;;;17.56;100.00
43436;BME280;36399;51.444;-2.018;2023-05-29T10:10:18;101815.31;;;17.04;100.00
43436;BME280;36399;51.444;-2.018;2023-05-29T10:12:49;101823.50;;;17.35;100.00
43436;BME280;36399;51.444;-2.018;2023-05-29T10:15:16;101821.47;;;17.00;100.00
43436;BME280;36399;51.444;-2.018;2023-05-29T10:17:53;101816.06;;;16.90;100.00
43436;BME280;36399;51.444;-2.018;2023-05-29T10:20:22;101818.31;;;16.50;100.00
43436;BME280;36399;51.444;-2.018;2023-05-29T10:22:51;101810.41;;;16.55;100.00
43436;BME280;36399;51.444;-2.018;2023-05-29T10:25:19;101811.34;;;15.83;100.00
43436;BME280;36399;51.444;-2.018;2023-05-29T10:27:46;101823.91;;;15.99;100.00
43436;BME280;36399;51.444;-2.018;2023-05-29T10:30:25;101806.72;;;16.40;100.00
43436;BME280;36399;51.444;-2.018;2023-05-29T10:36:14;101810.81;;;16.94;100.00
43436;BME280;36399;51.444;-2.018;2023-05-29T10:38:44;101805.41;;;16.84;100.00
43436;BME280;36399;51.444;-2.018;2023-05-29T10:43:56;101800.97;;;18.22;96.59
43436;BME280;36399;51.444;-2.018;2023-05-29T10:49:19;101820.47;;;18.27;99.58
43436;BME280;36399;51.444;-2.018;2023-05-29T10:51:45;101815.25;;;19.19;93.09
43436;BME280;36399;51.444;-2.018;2023-05-29T10:54:12;101803.41;;;20.25;81.16
43436;BME280;36399;51.444;-2.018;2023-05-29T10:56:39;101819.66;;;21.17;69.55
43436;BME280;36399;51.444;-2.018;2023-05-29T10:59:07;101811.56;;;21.31;64.29
43436;BME280;36399;51.444;-2.018;2023-05-29T11:01:34;101804.22;;;20.47;68.85
43436;BME280;36399;51.444;-2.018;2023-05-29T11:06:41;101809.06;;;19.26;92.22
43436;BME280;36399;51.444;-2.018;2023-05-29T11:09:30;101810.78;;;18.58;91.95
43436;BME280;36399;51.444;-2.018;2023-05-29T11:15:01;101819.47;;;18.00;100.00
43436;BME280;36399;51.444;-2.018;2023-05-29T11:20:05;101808.28;;;20.97;81.40
43436;BME280;36399;51.444;-2.018;2023-05-29T11:25:10;101804.56;;;22.65;59.77
43436;BME280;36399;51.444;-2.018;2023-05-29T11:27:37;101802.59;;;22.15;58.98
43436;BME280;36399;51.444;-2.018;2023-05-29T11:30:04;101798.63;;;20.84;64.27
43436;BME280;36399;51.444;-2.018;2023-05-29T11:32:34;101800.69;;;20.39;69.83
43436;BME280;36399;51.444;-2.018;2023-05-29T11:35:01;101796.28;;;20.32;72.75
43436;BME280;36399;51.444;-2.018;2023-05-29T11:37:30;101787.50;;;20.10;76.06
43436;BME280;36399;51.444;-2.018;2023-05-29T11:39:57;101790.63;;;20.77;72.80
43436;BME280;36399;51.444;-2.018;2023-05-29T11:42:23;101789.63;;;21.80;65.46
43436;BME280;36399;51.444;-2.018;2023-05-29T11:44:49;101785.28;;;21.72;66.33
43436;BME280;36399;51.444;-2.018;2023-05-29T11:47:15;101795.59;;;21.25;67.59
43436;BME280;36399;51.444;-2.018;2023-05-29T11:49:41;101793.25;;;21.77;64.34
43436;BME280;36399;51.444;-2.018;2023-05-29T11:52:08;101784.97;;;19.82;72.50
43436;BME280;36399;51.444;-2.018;2023-05-29T11:54:35;101782.16;;;20.11;75.73
43436;BME280;36399;51.444;-2.018;2023-05-29T11:57:01;101796.66;;;18.93;79.94
43436;BME280;36399;51.444;-2.018;2023-05-29T11:59:29;101790.28;;;18.13;95.78
43436;BME280;36399;51.444;-2.018;2023-05-29T12:01:55;101784.88;;;17.89;100.00
43436;BME280;36399;51.444;-2.018;2023-05-29T12:04:21;101786.78;;;18.25;100.00
43436;BME280;36399;51.444;-2.018;2023-05-29T12:06:47;101792.16;;;19.45;95.86
43436;BME280;36399;51.444;-2.018;2023-05-29T12:09:33;101759.22;;;19.72;81.76
43436;BME280;36399;51.444;-2.018;2023-05-29T12:12:02;101781.41;;;19.87;85.45
43436;BME280;36399;51.444;-2.018;2023-05-29T12:14:28;101771.13;;;20.69;83.59
43436;BME280;36399;51.444;-2.018;2023-05-29T12:16:54;101772.13;;;22.85;71.84
43436;BME280;36399;51.444;-2.018;2023-05-29T12:19:20;101764.06;;;22.86;61.23
43436;BME280;36399;51.444;-2.018;2023-05-29T12:21:46;101756.69;;;23.91;56.87
43436;BME280;36399;51.444;-2.018;2023-05-29T12:24:12;101762.72;;;23.13;56.32
43436;BME280;36399;51.444;-2.018;2023-05-29T12:26:39;101763.53;;;23.65;56.95
43436;BME280;36399;51.444;-2.018;2023-05-29T12:29:05;101761.44;;;23.33;55.59
43436;BME280;36399;51.444;-2.018;2023-05-29T12:31:32;101772.44;;;22.63;56.54
43436;BME280;36399;51.444;-2.018;2023-05-29T12:34:00;101760.66;;;22.17;61.08
43436;BME280;36399;51.444;-2.018;2023-05-29T12:36:27;101762.09;;;21.74;62.84
43436;BME280;36399;51.444;-2.018;2023-05-29T12:38:53;101767.78;;;21.47;67.27
43436;BME280;36399;51.444;-2.018;2023-05-29T12:41:32;101777.69;;;21.33;67.41
43436;BME280;36399;51.444;-2.018;2023-05-29T12:44:01;101769.03;;;21.06;66.35
43436;BME280;36399;51.444;-2.018;2023-05-29T12:46:38;101778.38;;;20.52;72.83
43436;BME280;36399;51.444;-2.018;2023-05-29T12:49:17;101770.09;;;20.89;71.79
43436;BME280;36399;51.444;-2.018;2023-05-29T12:51:46;101778.53;;;21.41;70.55
43436;BME280;36399;51.444;-2.018;2023-05-29T12:54:13;101768.16;;;21.89;64.84
43436;BME280;36399;51.444;-2.018;2023-05-29T12:56:40;101768.91;;;22.61;62.04
43436;BME280;36399;51.444;-2.018;2023-05-29T12:59:07;101776.38;;;22.98;60.03
43436;BME280;36399;51.444;-2.018;2023-05-29T13:01:34;101755.00;;;23.87;56.04